Time;durP1;ratioP1;P1;durP2;ratioP2;P2;SDS_P1;SDS_P2;PMS_P1;PMS_P2;Temp;Humidity;BMP_temperature;BMP_pressure;BME280_temperature;BME280_humidity;BME280_pressure;Samples;Min_cycle;Max_cycle;Signal;HPM_P1;HPM_P2
2022/03/18 00:03:06;;;;;;;2.33;1.55;;;;;;;-148.93;100.00;62180.91;20886382;28;20044;-76
2022/03/18 00:13:08;;;;;;;3.25;1.80;;;;;;;-148.93;100.00;62180.91;20903267;28;20047;-76
2022/03/18 00:23:12;;;;;;;5.05;1.48;;;;;;;-148.93;100.00;62180.91;20911709;28;20041;-76
2022/03/18 00:33:14;;;;;;;2.30;1.55;;;;;;;-148.93;100.00;62180.91;20911945;28;20045;-76
2022/03/18 00:43:16;;;;;;;2.42;1.15;;;;;;;-148.93;100.00;62180.91;20910093;28;20064;-76
2022/03/18 00:53:18;;;;;;;3.38;1.40;;;;;;;-148.93;100.00;62180.91;20891520;28;20052;-76
2022/03/18 01:03:21;;;;;;;4.63;1.48;;;;;;;-148.93;100.00;62180.91;20908030;28;20056;-76
2022/03/18 01:13:23;;;;;;;2.47;1.00;;;;;;;-148.93;100.00;62180.91;20873678;28;20131;-75
2022/03/18 01:23:25;;;;;;;1.80;1.10;;;;;;;-148.93;100.00;62180.91;20910745;28;20037;-76
2022/03/18 01:33:27;;;;;;;2.28;1.20;;;;;;;-148.93;100.00;62180.91;20908042;28;20049;-76
2022/03/18 01:43:36;;;;;;;1.83;0.95;;;;;;;-148.93;100.00;62180.91;20904679;28;20053;-77
2022/03/18 01:53:38;;;;;;;2.15;1.13;;;;;;;-148.93;100.00;62180.91;20906295;28;20051;-77
2022/03/18 02:03:40;;;;;;;2.85;1.23;;;;;;;-148.93;100.00;62180.91;20900553;28;20049;-76
2022/03/18 02:13:42;;;;;;;2.00;1.10;;;;;;;-148.93;100.00;62180.91;20887307;28;20411;-76
2022/03/18 02:23:44;;;;;;;2.55;1.10;;;;;;;-148.93;100.00;62180.91;20900594;28;20384;-76
2022/03/18 02:33:45;;;;;;;1.85;1.00;;;;;;;-148.93;100.00;62180.91;20888510;28;20049;-76
2022/03/18 02:43:47;;;;;;;1.67;0.90;;;;;;;-148.93;100.00;62180.91;20901796;28;20055;-76
2022/03/18 02:53:51;;;;;;;1.58;1.00;;;;;;;-148.93;100.00;62180.91;20900194;28;20068;-76
2022/03/18 03:03:54;;;;;;;3.13;1.20;;;;;;;-148.93;100.00;62180.91;20887663;28;20079;-76
2022/03/18 03:13:56;;;;;;;1.60;1.00;;;;;;;-148.93;100.00;62180.91;20898553;28;20040;-76
2022/03/18 03:23:58;;;;;;;2.10;1.17;;;;;;;-148.93;100.00;62180.91;20897882;28;20497;-77
2022/03/18 03:34:00;;;;;;;1.67;1.20;;;;;;;-148.93;100.00;62180.91;20897088;28;20098;-76
2022/03/18 03:44:03;;;;;;;2.15;1.13;;;;;;;-148.93;100.00;62180.91;20890357;28;20052;-75
2022/03/18 03:54:04;;;;;;;2.00;1.30;;;;;;;-148.93;100.00;62180.91;20897841;28;20194;-76
2022/03/18 04:04:06;;;;;;;1.88;1.20;;;;;;;-148.93;100.00;62180.91;20896325;28;20045;-75
2022/03/18 04:14:08;;;;;;;2.38;1.17;;;;;;;-148.93;100.00;62180.91;20886435;28;20052;-76
2022/03/18 04:24:14;;;;;;;2.00;1.05;;;;;;;-148.93;100.00;62180.91;20884104;28;20060;-76
2022/03/18 04:34:16;;;;;;;1.67;0.85;;;;;;;-148.93;100.00;62180.91;20909796;28;20056;-76
2022/03/18 04:44:18;;;;;;;1.80;0.98;;;;;;;-148.93;100.00;62180.91;20903333;28;20041;-76
2022/03/18 04:54:20;;;;;;;2.10;1.15;;;;;;;-148.93;100.00;62180.91;20909566;28;20115;-75
2022/03/18 05:04:22;;;;;;;2.83;1.13;;;;;;;-148.93;100.00;62180.91;20891383;28;20057;-76
2022/03/18 05:14:24;;;;;;;1.83;0.80;;;;;;;-148.93;100.00;62180.91;20907018;28;20491;-76
2022/03/18 05:24:27;;;;;;;2.03;1.13;;;;;;;-148.93;100.00;62180.91;20911849;28;20053;-76
2022/03/18 05:34:30;;;;;;;1.75;1.00;;;;;;;-148.93;100.00;62180.91;20888439;28;20056;-76
2022/03/18 05:44:32;;;;;;;2.40;1.20;;;;;;;-148.93;100.00;62180.91;20905465;28;20380;-76
2022/03/18 05:54:34;;;;;;;1.80;1.10;;;;;;;-148.93;100.00;62180.91;20877305;28;20045;-76
2022/03/18 06:04:37;;;;;;;2.65;1.00;;;;;;;-148.93;100.00;62180.91;20887104;28;20072;-76
2022/03/18 06:14:38;;;;;;;1.63;0.88;;;;;;;-148.93;100.00;62180.91;20909543;28;20037;-76
2022/03/18 06:24:40;;;;;;;0.73;0.65;;;;;;;-148.93;100.00;62180.91;20908978;28;20047;-76
2022/03/18 06:34:42;;;;;;;1.40;0.80;;;;;;;-148.93;100.00;62180.91;20908007;28;20167;-76
2022/03/18 06:44:45;;;;;;;1.45;0.82;;;;;;;-148.93;100.00;62180.91;20903990;28;20503;-77
2022/03/18 06:54:48;;;;;;;1.90;0.88;;;;;;;-148.93;100.00;62180.91;20906888;28;20132;-76
2022/03/18 07:04:50;;;;;;;1.55;0.95;;;;;;;-148.93;100.00;62180.91;20905996;28;20053;-77
2022/03/18 07:14:51;;;;;;;1.15;1.02;;;;;;;-148.93;100.00;62180.91;20905686;28;20044;-77
2022/03/18 07:24:53;;;;;;;1.35;0.80;;;;;;;-148.93;100.00;62180.91;20905427;28;20363;-77
2022/03/18 07:34:55;;;;;;;1.00;0.80;;;;;;;-148.93;100.00;62180.91;20904704;28;20060;-77
2022/03/18 07:44:57;;;;;;;0.85;0.70;;;;;;;-148.93;100.00;62180.91;20904391;28;20048;-76
2022/03/18 07:54:59;;;;;;;1.15;0.80;;;;;;;-148.93;100.00;62180.91;20904326;28;20037;-77
2022/03/18 08:05:01;;;;;;;1.25;0.80;;;;;;;-148.93;100.00;62180.91;20919992;28;20082;-76
2022/03/18 08:15:06;;;;;;;1.85;0.93;;;;;;;-148.93;100.00;62180.91;20919194;28;20479;-76
2022/03/18 08:25:09;;;;;;;1.70;1.10;;;;;;;-148.93;100.00;62180.91;20918471;28;20049;-76
2022/03/18 08:35:11;;;;;;;1.50;0.95;;;;;;;-148.93;100.00;62180.91;20909383;28;20060;-76
2022/03/18 08:45:13;;;;;;;1.58;1.25;;;;;;;-148.93;100.00;62180.91;20908949;28;20063;-77
2022/03/18 08:55:16;;;;;;;1.20;0.93;;;;;;;-148.93;100.00;62180.91;20912685;28;20037;-76
2022/03/18 09:05:17;;;;;;;2.67;1.10;;;;;;;-148.93;100.00;62180.91;20907037;28;20490;-75
2022/03/18 09:15:19;;;;;;;1.67;0.90;;;;;;;-148.93;100.00;62180.91;20912978;28;20044;-75
2022/03/18 09:25:21;;;;;;;2.53;1.23;;;;;;;-148.93;100.00;62180.91;20895850;28;20081;-74
2022/03/18 09:35:23;;;;;;;6.68;1.08;;;;;;;-148.93;100.00;62180.91;20895652;28;20068;-76
2022/03/18 09:45:30;;;;;;;2.30;1.15;;;;;;;-148.93;100.00;62180.91;20912080;28;20067;-74
2022/03/18 09:55:35;;;;;;;2.88;1.10;;;;;;;-148.93;100.00;62180.91;20903320;28;20041;-74
2022/03/18 10:05:59;;;;;;;2.90;0.97;;;;;;;-148.93;100.00;62180.91;20893150;28;20483;-78
2022/03/18 10:16:01;;;;;;;2.72;1.02;;;;;;;-148.93;100.00;62180.91;20892170;28;20045;-75
2022/03/18 10:26:03;;;;;;;1.35;0.93;;;;;;;-148.93;100.00;62180.91;20903713;28;20045;-74
2022/03/18 10:46:43;;;;;;;2.25;1.13;;;;;;;-148.93;100.00;62180.91;20884998;28;20045;-74
2022/03/18 10:56:58;;;;;;;1.85;0.80;;;;;;;-148.93;100.00;62180.91;20896610;28;20045;-74
2022/03/18 11:17:23;;;;;;;2.80;1.38;;;;;;;-148.93;100.00;62180.91;20903205;28;20056;-73
2022/03/18 11:27:25;;;;;;;1.95;0.93;;;;;;;-148.93;100.00;62180.91;20887903;28;20049;-74
2022/03/18 11:37:28;;;;;;;1.60;1.10;;;;;;;-148.93;100.00;62180.91;20917785;28;20081;-73
2022/03/18 11:47:30;;;;;;;5.25;0.90;;;;;;;-148.93;100.00;62180.91;20903400;28;20072;-73
2022/03/18 11:57:53;;;;;;;2.03;0.90;;;;;;;-148.93;100.00;62180.91;20920587;28;20107;-73
2022/03/18 12:07:55;;;;;;;1.77;0.80;;;;;;;-148.93;100.00;62180.91;20901820;28;20053;-73
2022/03/18 12:17:57;;;;;;;2.35;1.00;;;;;;;-148.93;100.00;62180.91;20901062;28;20060;-73
2022/03/18 12:28:00;;;;;;;3.13;1.10;;;;;;;-148.93;100.00;62180.91;20918271;28;20052;-74
2022/03/18 12:38:04;;;;;;;1.75;0.70;;;;;;;-148.93;100.00;62180.91;20899594;28;20801;-74
2022/03/18 12:48:14;;;;;;;1.30;0.70;;;;;;;-148.93;100.00;62180.91;20916380;28;20052;-73
2022/03/18 12:58:18;;;;;;;2.00;0.88;;;;;;;-148.93;100.00;62180.91;20916327;28;20147;-73
2022/03/18 13:08:20;;;;;;;1.88;0.73;;;;;;;-148.93;100.00;62180.91;20915056;28;20064;-73
2022/03/18 13:18:22;;;;;;;2.80;0.90;;;;;;;-148.93;100.00;62180.91;20896761;28;20052;-74
2022/03/18 13:28:26;;;;;;;2.42;0.88;;;;;;;-148.93;100.00;62180.91;20913610;28;20068;-74
2022/03/18 13:38:29;;;;;;;3.35;1.00;;;;;;;-148.93;100.00;62180.91;20878678;28;20053;-74
2022/03/18 13:48:31;;;;;;;1.90;0.90;;;;;;;-148.93;100.00;62180.91;20912476;28;20055;-73
2022/03/18 13:58:38;;;;;;;3.90;1.38;;;;;;;-148.93;100.00;62180.91;20910231;28;20461;-74
2022/03/18 14:08:42;;;;;;;2.50;1.00;;;;;;;-148.93;100.00;62180.91;20910409;28;20048;-74
2022/03/18 14:18:44;;;;;;;1.67;0.75;;;;;;;-148.93;100.00;62180.91;20892210;28;20500;-75
2022/03/18 14:28:48;;;;;;;2.40;0.90;;;;;;;-148.93;100.00;62180.91;20891172;28;20040;-74
2022/03/18 14:38:50;;;;;;;3.15;0.88;;;;;;;-148.93;100.00;62180.91;20907712;28;20538;-74
2022/03/18 14:48:52;;;;;;;1.45;0.82;;;;;;;-148.93;100.00;62180.91;20874438;28;20043;-75
2022/03/18 14:58:55;;;;;;;1.73;0.80;;;;;;;-148.93;100.00;62180.91;20906757;28;20049;-74
2022/03/18 15:08:57;;;;;;;1.60;0.90;;;;;;;-148.93;100.00;62180.91;20906023;28;20562;-74
2022/03/18 15:18:59;;;;;;;1.63;0.88;;;;;;;-148.93;100.00;62180.91;20905627;28;20552;-74
2022/03/18 15:29:01;;;;;;;2.40;0.95;;;;;;;-148.93;100.00;62180.91;20897209;28;20056;-75
2022/03/18 15:39:04;;;;;;;1.35;1.10;;;;;;;-148.93;100.00;62180.91;20905047;28;20071;-74
2022/03/18 15:49:06;;;;;;;4.97;1.42;;;;;;;-148.93;100.00;62180.91;20904696;28;20056;-74
2022/03/18 15:59:09;;;;;;;3.83;1.70;;;;;;;-148.93;100.00;62180.91;20904262;28;20049;-74
2022/03/18 16:09:10;;;;;;;4.05;1.60;;;;;;;-148.93;100.00;62180.91;20903499;28;20581;-74
2022/03/18 16:19:13;;;;;;;3.85;1.77;;;;;;;-148.93;100.00;62180.91;20908258;28;20159;-74
2022/03/18 16:29:15;;;;;;;2.88;1.42;;;;;;;-148.93;100.00;62180.91;20918374;28;20144;-74
2022/03/18 16:39:17;;;;;;;4.03;1.83;;;;;;;-148.93;100.00;62180.91;20917215;28;20053;-74
2022/03/18 16:49:24;;;;;;;5.28;1.75;;;;;;;-148.93;100.00;62180.91;20916731;28;20079;-74
2022/03/18 16:59:26;;;;;;;4.68;1.60;;;;;;;-148.93;100.00;62180.91;20898642;28;20049;-74
2022/03/18 17:09:28;;;;;;;5.25;1.60;;;;;;;-148.93;100.00;62180.91;20897323;28;20049;-74
2022/03/18 17:19:30;;;;;;;6.75;1.48;;;;;;;-148.93;100.00;62180.91;20914540;28;20464;-73
2022/03/18 17:29:32;;;;;;;5.03;1.33;;;;;;;-148.93;100.00;62180.91;20912641;28;20372;-73
2022/03/18 17:39:37;;;;;;;3.85;1.50;;;;;;;-148.93;100.00;62180.91;20911851;28;20493;-74
2022/03/18 17:49:39;;;;;;;4.75;1.63;;;;;;;-148.93;100.00;62180.91;20912247;28;20049;-74
2022/03/18 17:59:42;;;;;;;4.72;1.40;;;;;;;-148.93;100.00;62180.91;20911229;28;20137;-74
2022/03/18 18:09:47;;;;;;;3.65;1.27;;;;;;;-148.93;100.00;62180.91;20910324;28;20052;-74
2022/03/18 18:30:10;;;;;;;4.97;1.10;;;;;;;-148.93;100.00;62180.91;20908957;28;20045;-76
2022/03/18 18:40:12;;;;;;;4.63;1.42;;;;;;;-148.93;100.00;62180.91;20907726;28;20053;-77
2022/03/18 18:50:14;;;;;;;4.28;1.20;;;;;;;-148.93;100.00;62180.91;20899877;28;20056;-76
2022/03/18 19:00:16;;;;;;;6.22;1.15;;;;;;;-148.93;100.00;62180.91;20906488;28;20447;-76
2022/03/18 19:10:18;;;;;;;4.90;1.38;;;;;;;-148.93;100.00;62180.91;20906061;28;20414;-77
2022/03/18 19:20:20;;;;;;;2.90;1.20;;;;;;;-148.93;100.00;62180.91;20902071;28;20087;-76
2022/03/18 19:30:22;;;;;;;3.47;1.15;;;;;;;-148.93;100.00;62180.91;20898604;28;20072;-76
2022/03/18 19:40:23;;;;;;;3.83;1.10;;;;;;;-148.93;100.00;62180.91;20898015;28;20055;-76
2022/03/18 19:50:25;;;;;;;4.55;1.25;;;;;;;-148.93;100.00;62180.91;20897839;28;20063;-76
2022/03/18 20:10:49;;;;;;;2.70;1.10;;;;;;;-148.93;100.00;62180.91;20892748;28;20053;-76
2022/03/18 20:20:51;;;;;;;3.28;1.15;;;;;;;-148.93;100.00;62180.91;20917000;28;20718;-76
2022/03/18 20:30:52;;;;;;;2.53;1.10;;;;;;;-148.93;100.00;62180.91;20916239;28;20040;-76
2022/03/18 20:40:55;;;;;;;4.15;1.38;;;;;;;-148.93;100.00;62180.91;20894869;28;20049;-77
2022/03/18 20:50:58;;;;;;;4.25;1.40;;;;;;;-148.93;100.00;62180.91;20910625;28;20048;-76
2022/03/18 21:01:00;;;;;;;3.78;1.25;;;;;;;-148.93;100.00;62180.91;20909525;28;20055;-76
2022/03/18 21:11:03;;;;;;;4.28;1.23;;;;;;;-148.93;100.00;62180.91;20915074;28;20041;-76
2022/03/18 21:21:04;;;;;;;6.05;1.50;;;;;;;-148.93;100.00;62180.91;20913681;28;20069;-76
2022/03/18 21:31:06;;;;;;;4.60;1.60;;;;;;;-148.93;100.00;62180.91;20915140;28;20047;-76
2022/03/18 21:41:08;;;;;;;3.35;1.10;;;;;;;-148.93;100.00;62180.91;20912035;28;20069;-77
2022/03/18 21:51:10;;;;;;;2.65;1.27;;;;;;;-148.93;100.00;62180.91;20907697;28;20044;-76
2022/03/18 22:01:15;;;;;;;3.25;1.02;;;;;;;-148.93;100.00;62180.91;20888405;28;20059;-77
2022/03/18 22:11:17;;;;;;;3.67;1.30;;;;;;;-148.93;100.00;62180.91;20906235;28;20478;-77
2022/03/18 22:21:19;;;;;;;2.45;1.27;;;;;;;-148.93;100.00;62180.91;20886809;28;20075;-77
2022/03/18 22:31:21;;;;;;;3.83;1.20;;;;;;;-148.93;100.00;62180.91;20886511;28;20051;-76
2022/03/18 22:41:23;;;;;;;5.00;1.30;;;;;;;-148.93;100.00;62180.91;20895045;28;20056;-76
2022/03/18 22:51:25;;;;;;;2.50;1.00;;;;;;;-148.93;100.00;62180.91;20905274;28;20040;-77
2022/03/18 23:01:28;;;;;;;3.55;1.10;;;;;;;-148.93;100.00;62180.91;20903528;28;20064;-76
2022/03/18 23:21:52;;;;;;;3.42;1.17;;;;;;;-148.93;100.00;62180.91;20897997;28;20413;-77
2022/03/18 23:31:55;;;;;;;3.90;1.10;;;;;;;-148.93;100.00;62180.91;20898978;28;20080;-77
2022/03/18 23:42:03;;;;;;;2.85;0.80;;;;;;;-148.93;100.00;62180.91;20899365;28;20380;-77
2022/03/18 23:52:05;;;;;;;2.58;1.10;;;;;;;-148.93;100.00;62180.91;20881526;28;20067;-77
